Time;durP1;ratioP1;P1;durP2;ratioP2;P2;SDS_P1;SDS_P2;PMS_P1;PMS_P2;Temp;Humidity;BMP_temperature;BMP_pressure;BME280_temperature;BME280_humidity;BME280_pressure;Samples;Min_cycle;Max_cycle;Signal;HPM_P1;HPM_P2
2022/05/10 00:01:22;;;;;;;7.50;2.45;;;;;;;15.40;70.22;101321.63;2111986;28;20044;-71
2022/05/10 00:02:53;;;;;;;6.15;2.33;;;;;;;15.43;70.16;101318.94;2114072;28;20137;-69
2022/05/10 00:04:16;;;;;;;5.22;2.40;;;;;;;15.42;70.17;101322.53;2104795;28;20048;-70
2022/05/10 00:05:42;;;;;;;7.45;2.17;;;;;;;15.37;70.30;101321.59;2099791;28;20052;-69
2022/05/10 00:07:05;;;;;;;7.60;2.55;;;;;;;15.24;70.66;101317.06;2109277;28;20510;-70
2022/05/10 00:08:27;;;;;;;7.38;1.88;;;;;;;15.22;71.00;101316.19;2103692;28;20044;-69
2022/05/10 00:09:49;;;;;;;6.43;1.77;;;;;;;15.24;71.05;101317.97;2109325;28;20461;-70
2022/05/10 00:11:12;;;;;;;9.25;2.33;;;;;;;15.29;71.14;101315.34;2112078;28;20096;-70
2022/05/10 00:12:36;;;;;;;6.53;2.28;;;;;;;15.33;71.16;101311.81;2103446;28;20044;-69
2022/05/10 00:13:58;;;;;;;9.32;1.50;;;;;;;15.30;71.24;101310.03;2111248;28;20085;-71
2022/05/10 00:15:21;;;;;;;6.10;1.73;;;;;;;15.32;71.19;101307.38;2106357;28;20051;-69
2022/05/10 00:16:45;;;;;;;4.57;1.77;;;;;;;15.33;71.34;101311.81;2104997;28;20032;-70
2022/05/10 00:18:10;;;;;;;14.70;2.55;;;;;;;15.35;71.36;101305.63;2105661;28;22135;-69
2022/05/10 00:19:32;;;;;;;7.03;2.17;;;;;;;15.40;71.33;101309.19;2103832;28;20105;-70
2022/05/10 00:20:53;;;;;;;9.45;2.13;;;;;;;15.44;71.33;101294.13;2109262;28;20523;-70
2022/05/10 00:22:16;;;;;;;5.07;1.80;;;;;;;15.44;71.27;101299.44;2104831;28;20078;-70
2022/05/10 00:23:38;;;;;;;10.98;2.03;;;;;;;15.40;71.29;101298.56;2111118;28;20391;-69
2022/05/10 00:25:00;;;;;;;6.63;2.13;;;;;;;15.36;71.30;101299.41;2111101;28;20442;-70
2022/05/10 00:26:23;;;;;;;7.95;1.80;;;;;;;15.33;71.39;101293.19;2109777;28;20135;-69
2022/05/10 00:27:47;;;;;;;9.90;2.88;;;;;;;15.31;71.43;101290.53;2110292;28;20056;-69
2022/05/10 00:29:10;;;;;;;6.80;2.58;;;;;;;15.31;71.35;101294.94;2108869;28;20456;-70
2022/05/10 00:30:33;;;;;;;9.25;2.60;;;;;;;15.34;71.46;101292.31;2097461;28;20036;-72
2022/05/10 00:31:55;;;;;;;6.30;1.92;;;;;;;15.33;71.40;101285.22;2099856;28;20048;-70
2022/05/10 00:33:22;;;;;;;4.32;1.98;;;;;;;15.30;71.25;101293.16;2104246;28;20056;-69
2022/05/10 00:34:45;;;;;;;10.00;2.85;;;;;;;15.24;71.26;101282.50;2097852;28;20598;-70
2022/05/10 00:36:10;;;;;;;7.57;2.53;;;;;;;15.24;71.34;101278.06;2106919;28;20479;-69
2022/05/10 00:37:33;;;;;;;7.28;2.60;;;;;;;15.20;71.36;101278.94;2103450;28;20067;-69
2022/05/10 00:38:55;;;;;;;8.18;1.85;;;;;;;15.19;71.26;101285.16;2107426;28;20089;-70
2022/05/10 00:40:22;;;;;;;6.35;1.98;;;;;;;15.18;71.30;101278.03;2111870;28;20047;-70
2022/05/10 00:41:54;;;;;;;7.32;1.92;;;;;;;15.17;71.28;101278.91;2102691;28;20111;-71
2022/05/10 00:43:29;;;;;;;6.70;2.38;;;;;;;15.12;71.30;101278.91;2110821;28;20041;-70
2022/05/10 00:44:59;;;;;;;6.43;2.70;;;;;;;15.10;71.39;101280.66;2104109;28;20044;-70
2022/05/10 00:46:28;;;;;;;11.18;1.88;;;;;;;15.10;71.24;101280.66;2097163;28;20442;-70
2022/05/10 00:48:00;;;;;;;9.15;1.83;;;;;;;15.11;71.32;101277.13;2109752;28;20039;-69
2022/05/10 00:49:29;;;;;;;12.43;2.67;;;;;;;15.12;71.39;101273.59;2113196;28;20104;-69
2022/05/10 00:50:56;;;;;;;9.88;2.60;;;;;;;15.17;71.45;101276.25;2104744;28;21937;-70
2022/05/10 00:52:28;;;;;;;7.90;1.88;;;;;;;15.18;71.53;101275.38;2110243;28;20043;-69
2022/05/10 00:54:00;;;;;;;6.90;2.40;;;;;;;15.10;71.53;101278.00;2107558;28;20067;-70
2022/05/10 00:55:26;;;;;;;7.38;1.80;;;;;;;15.03;71.74;101277.97;2104775;28;20143;-69
2022/05/10 00:56:55;;;;;;;7.50;1.77;;;;;;;15.00;71.89;101268.22;2109673;28;20066;-69
2022/05/10 00:58:26;;;;;;;11.40;2.05;;;;;;;15.02;71.84;101263.78;2103620;28;20084;-70
2022/05/10 00:59:59;;;;;;;7.47;1.75;;;;;;;15.02;71.80;101266.44;2109296;28;20499;-70
2022/05/10 01:01:29;;;;;;;7.82;1.90;;;;;;;15.04;71.76;101262.00;2102592;28;20059;-70
2022/05/10 01:03:01;;;;;;;7.05;2.03;;;;;;;15.08;71.65;101262.94;2110302;28;20055;-70
2022/05/10 01:04:29;;;;;;;8.93;1.83;;;;;;;15.08;71.67;101260.28;2111179;28;20040;-69
2022/05/10 01:06:00;;;;;;;7.03;1.73;;;;;;;15.07;71.46;101263.81;2112393;28;20332;-70
2022/05/10 01:07:29;;;;;;;7.88;1.83;;;;;;;15.06;71.57;101260.25;2111415;28;20088;-69
2022/05/10 01:08:59;;;;;;;4.00;1.45;;;;;;;15.04;71.62;101262.00;2095699;28;20044;-70
2022/05/10 01:10:33;;;;;;;11.02;2.05;;;;;;;15.06;71.88;101259.38;2094519;28;20044;-70
2022/05/10 01:12:05;;;;;;;4.18;1.58;;;;;;;15.06;72.08;101268.25;2103800;28;20059;-69
2022/05/10 01:13:32;;;;;;;5.18;1.73;;;;;;;14.93;72.26;101262.84;2109200;28;20046;-69
2022/05/10 01:14:57;;;;;;;7.63;1.52;;;;;;;14.86;72.67;101259.25;2112069;28;20455;-70
2022/05/10 01:16:21;;;;;;;9.70;1.83;;;;;;;14.90;73.02;101260.19;2105775;28;20050;-70
2022/05/10 01:17:45;;;;;;;5.63;1.85;;;;;;;14.96;73.12;101257.56;2104010;28;20101;-68
2022/05/10 01:19:08;;;;;;;9.38;2.80;;;;;;;14.93;73.09;101261.06;2111723;28;20047;-69
2022/05/10 01:20:37;;;;;;;9.38;1.85;;;;;;;14.83;73.42;101256.59;2111963;28;20153;-70
2022/05/10 01:22:14;;;;;;;8.35;1.80;;;;;;;14.85;73.72;101256.59;2110894;28;20511;-70
2022/05/10 01:24:03;;;;;;;10.18;2.78;;;;;;;14.94;73.68;101260.19;2111750;28;20039;-70
2022/05/10 01:25:55;;;;;;;7.63;1.88;;;;;;;15.01;73.57;101255.81;2113684;28;20047;-70
2022/05/10 01:27:39;;;;;;;14.40;2.08;;;;;;;15.03;73.45;101257.56;2105844;28;20044;-70
2022/05/10 01:29:07;;;;;;;9.77;1.85;;;;;;;15.00;73.23;101260.22;2113151;28;20055;-71
2022/05/10 01:30:30;;;;;;;8.68;2.55;;;;;;;14.97;73.32;101249.56;2111880;28;20051;-69
2022/05/10 01:33:37;;;;;;;11.70;2.25;;;;;;;14.96;73.24;101249.56;2112261;28;20077;-70
2022/05/10 01:35:01;;;;;;;10.07;2.03;;;;;;;14.91;73.25;101254.84;2105915;28;20752;-70
2022/05/10 01:36:29;;;;;;;9.43;2.10;;;;;;;14.90;73.17;101252.22;2108468;28;20047;-70
2022/05/10 01:37:57;;;;;;;8.82;1.73;;;;;;;15.20;72.22;101249.69;2105240;28;20083;-70
2022/05/10 01:39:26;;;;;;;4.85;1.88;;;;;;;15.24;71.66;101250.56;2103304;28;20510;-70
2022/05/10 01:40:52;;;;;;;6.15;2.30;;;;;;;14.84;72.52;101255.69;2112088;28;20081;-69
2022/05/10 01:42:20;;;;;;;7.28;1.88;;;;;;;14.77;72.68;101247.69;2107541;28;20138;-70
2022/05/10 01:43:47;;;;;;;8.05;2.20;;;;;;;14.74;72.90;101249.44;2097652;28;20052;-70
2022/05/10 01:45:19;;;;;;;6.50;2.10;;;;;;;14.73;72.89;101246.78;2093388;28;20048;-69
2022/05/10 01:46:42;;;;;;;4.55;1.67;;;;;;;14.71;72.85;101235.22;2117054;28;20051;-70
2022/05/10 01:48:05;;;;;;;6.85;1.85;;;;;;;14.73;72.92;101238.78;2096588;28;20094;-70
2022/05/10 01:49:33;;;;;;;8.40;2.03;;;;;;;14.75;72.55;101242.38;2109440;28;20050;-69
2022/05/10 01:51:03;;;;;;;8.77;1.90;;;;;;;14.73;72.69;101241.47;2102354;28;20197;-70
2022/05/10 01:52:32;;;;;;;6.72;1.67;;;;;;;14.70;72.66;101234.34;2110127;28;20048;-70
2022/05/10 01:53:55;;;;;;;6.22;1.83;;;;;;;14.67;72.71;101237.00;2111637;28;20114;-69
2022/05/10 01:55:36;;;;;;;7.78;1.95;;;;;;;14.65;72.80;101236.09;2111584;28;20040;-69
2022/05/10 01:56:58;;;;;;;6.70;1.92;;;;;;;14.63;72.87;101236.97;2116729;28;20499;-70
2022/05/10 01:58:24;;;;;;;10.55;2.67;;;;;;;14.60;72.87;101239.59;2113036;28;20047;-69
2022/05/10 01:59:50;;;;;;;5.50;1.70;;;;;;;14.55;72.88;101239.56;2112954;28;20043;-70
2022/05/10 02:01:25;;;;;;;7.28;1.90;;;;;;;14.53;72.96;101230.69;2111591;28;20060;-70
2022/05/10 02:02:50;;;;;;;9.30;1.90;;;;;;;14.54;72.80;101235.13;2102519;28;20047;-69
2022/05/10 02:04:18;;;;;;;8.63;2.15;;;;;;;14.55;72.77;101230.72;2109692;28;20542;-69
2022/05/10 02:05:48;;;;;;;5.50;1.73;;;;;;;14.55;72.78;101236.03;2102588;28;20048;-69
2022/05/10 02:07:15;;;;;;;4.95;1.95;;;;;;;14.54;72.76;101234.25;2105062;28;20060;-70
2022/05/10 02:08:43;;;;;;;9.50;1.92;;;;;;;14.53;72.90;101235.13;2110289;28;20036;-69
2022/05/10 02:10:13;;;;;;;5.93;1.73;;;;;;;14.50;72.93;101236.00;2110931;28;20084;-70
2022/05/10 02:11:38;;;;;;;10.60;2.30;;;;;;;14.44;72.92;101240.38;2103769;28;20044;-70
2022/05/10 02:13:06;;;;;;;5.53;1.73;;;;;;;14.28;73.12;101236.66;2103326;28;20521;-70
2022/05/10 02:14:35;;;;;;;9.45;1.75;;;;;;;14.16;73.66;101232.16;2103521;28;20044;-70
2022/05/10 02:16:01;;;;;;;7.00;1.70;;;;;;;14.12;73.94;101238.28;2107506;28;20150;-72
2022/05/10 02:17:30;;;;;;;6.68;2.20;;;;;;;14.16;74.08;101236.56;2110634;28;20036;-69
2022/05/10 02:19:00;;;;;;;6.93;1.70;;;;;;;14.21;73.85;101240.16;2109659;28;20044;-70
2022/05/10 02:20:28;;;;;;;10.50;2.20;;;;;;;14.24;73.69;101238.38;2111194;28;20055;-69
2022/05/10 02:21:56;;;;;;;6.43;1.85;;;;;;;14.29;73.60;101239.34;2111558;28;20168;-70
2022/05/10 02:23:20;;;;;;;7.85;2.53;;;;;;;14.29;73.48;101231.38;2109887;28;20051;-69
2022/05/10 02:24:46;;;;;;;5.65;1.73;;;;;;;14.26;73.32;101238.41;2110245;28;20075;-69
2022/05/10 02:26:10;;;;;;;6.63;2.15;;;;;;;14.23;73.40;101238.41;2101339;28;20476;-69
2022/05/10 02:27:39;;;;;;;8.57;2.17;;;;;;;14.20;73.36;101239.25;2103330;28;20086;-70
2022/05/10 02:29:10;;;;;;;7.30;2.08;;;;;;;14.18;73.34;101241.00;2104945;28;20124;-70
2022/05/10 02:30:35;;;;;;;5.38;1.50;;;;;;;14.13;73.39;101237.44;2110304;28;20458;-69
2022/05/10 02:33:48;;;;;;;7.03;2.53;;;;;;;14.12;73.68;101235.63;2111882;28;20359;-70
2022/05/10 02:35:12;;;;;;;8.35;2.38;;;;;;;14.16;73.56;101233.91;2114887;28;20062;-70
2022/05/10 02:36:34;;;;;;;8.13;2.30;;;;;;;14.18;73.47;101242.75;2111633;28;20047;-70
2022/05/10 02:37:55;;;;;;;8.85;1.90;;;;;;;14.19;73.33;101237.47;2109966;28;20035;-70
2022/05/10 02:39:18;;;;;;;8.07;1.95;;;;;;;14.17;73.30;101233.94;2104132;28;20052;-70
2022/05/10 02:40:42;;;;;;;5.45;1.80;;;;;;;14.15;73.30;101240.09;2112492;28;20043;-70
2022/05/10 02:42:09;;;;;;;4.55;1.63;;;;;;;14.12;73.29;101238.28;2106845;28;20079;-69
2022/05/10 02:43:34;;;;;;;6.70;1.92;;;;;;;14.07;73.28;101240.03;2111226;28;20152;-70
2022/05/10 02:44:58;;;;;;;8.02;2.00;;;;;;;14.02;73.45;101239.09;2098389;28;20058;-70
2022/05/10 02:46:21;;;;;;;6.95;1.73;;;;;;;13.96;73.52;101242.59;2108743;28;20101;-70
2022/05/10 02:47:43;;;;;;;6.57;1.75;;;;;;;13.98;73.76;101239.06;2104329;28;20065;-69
2022/05/10 02:49:07;;;;;;;;;;;;;;;14.02;73.60;101243.53;2103259;28;20089;-69
2022/05/10 02:50:32;;;;;;;7.45;2.15;;;;;;;14.02;73.55;101239.09;2108196;28;19932;-70
2022/05/10 02:51:55;;;;;;;5.47;2.50;;;;;;;14.02;73.38;101246.19;2104565;28;20044;-69
2022/05/10 02:53:18;;;;;;;9.18;2.53;;;;;;;14.02;73.24;101247.06;2101430;28;20048;-69
2022/05/10 02:54:40;;;;;;;10.25;2.70;;;;;;;14.00;73.08;101246.16;2106542;28;20551;-69
2022/05/10 02:56:04;;;;;;;6.60;2.03;;;;;;;14.01;73.05;101236.44;2095352;28;20048;-70
2022/05/10 02:57:28;;;;;;;7.18;2.17;;;;;;;14.02;72.84;101248.81;2109591;28;20409;-70
2022/05/10 02:58:54;;;;;;;5.18;1.63;;;;;;;14.01;72.76;101245.28;2111794;28;20056;-69
2022/05/10 03:00:17;;;;;;;10.00;2.17;;;;;;;14.00;72.67;101247.91;2104613;28;20097;-70
2022/05/10 03:01:45;;;;;;;6.90;1.60;;;;;;;13.98;72.73;101249.69;2110217;28;20138;-69
2022/05/10 03:03:11;;;;;;;8.10;1.65;;;;;;;13.95;72.82;101245.22;2104710;28;20131;-70
2022/05/10 03:04:38;;;;;;;7.80;2.55;;;;;;;13.95;72.88;101250.53;2108189;28;20082;-70
2022/05/10 03:06:00;;;;;;;8.43;2.00;;;;;;;13.91;72.92;101248.75;2103558;28;20044;-70
2022/05/10 03:07:23;;;;;;;5.97;2.28;;;;;;;13.90;73.05;101255.81;2105939;28;20086;-69
2022/05/10 03:08:46;;;;;;;5.15;1.80;;;;;;;13.90;73.08;101250.50;2100092;28;20044;-70
2022/05/10 03:10:10;;;;;;;6.28;1.95;;;;;;;13.94;73.13;101254.94;2108695;28;20039;-69
2022/05/10 03:11:35;;;;;;;6.95;2.33;;;;;;;13.94;73.07;101252.31;2111741;28;20105;-70
2022/05/10 03:12:57;;;;;;;7.85;1.60;;;;;;;13.95;72.92;101259.38;2109638;28;20088;-70
2022/05/10 03:14:20;;;;;;;9.25;1.92;;;;;;;13.97;72.79;101251.44;2109568;28;20043;-70
2022/05/10 03:15:42;;;;;;;8.27;1.75;;;;;;;13.96;72.84;101249.66;2104284;28;20052;-70
2022/05/10 03:17:04;;;;;;;3.90;1.83;;;;;;;13.97;72.93;101256.75;2098066;28;20041;-70
2022/05/10 03:18:27;;;;;;;9.40;1.83;;;;;;;13.96;72.94;101250.56;2095751;28;20154;-70
2022/05/10 03:19:51;;;;;;;6.50;2.00;;;;;;;13.98;73.03;101251.44;2112332;28;20051;-70
2022/05/10 03:21:14;;;;;;;6.85;2.13;;;;;;;13.98;73.13;101249.69;2110313;28;20145;-70
2022/05/10 03:22:36;;;;;;;6.80;1.90;;;;;;;13.98;73.19;101253.19;2114991;28;20051;-69
2022/05/10 03:23:59;;;;;;;8.43;1.90;;;;;;;13.99;73.20;101249.69;2110636;28;20047;-70
2022/05/10 03:25:21;;;;;;;8.00;1.95;;;;;;;14.02;73.33;101247.06;2102924;28;20418;-70
2022/05/10 03:26:48;;;;;;;8.88;1.90;;;;;;;14.03;73.36;101251.50;2108093;28;20133;-73
2022/05/10 03:28:11;;;;;;;8.07;1.92;;;;;;;14.02;73.48;101252.38;2115816;27;20151;-70
2022/05/10 03:29:32;;;;;;;8.20;1.85;;;;;;;14.02;73.45;101254.13;2107632;28;20576;-70
2022/05/10 03:30:56;;;;;;;5.90;1.83;;;;;;;13.97;73.51;101264.72;2111959;28;20052;-70
2022/05/10 03:32:18;;;;;;;4.50;1.73;;;;;;;13.90;73.84;101258.47;2098480;28;20052;-70
2022/05/10 03:33:41;;;;;;;11.02;2.60;;;;;;;13.90;74.09;101261.13;2109651;27;20108;-71
2022/05/10 03:35:05;;;;;;;7.63;1.85;;;;;;;13.95;74.20;101264.69;2112201;28;20435;-70
2022/05/10 03:36:27;;;;;;;8.50;2.17;;;;;;;14.00;73.91;101267.38;2112657;28;20040;-71
2022/05/10 03:37:50;;;;;;;11.93;2.10;;;;;;;14.05;73.66;101262.13;2106407;28;20048;-71
2022/05/10 03:39:11;;;;;;;4.47;1.92;;;;;;;14.12;73.54;101267.50;2099731;28;20044;-70
2022/05/10 03:40:34;;;;;;;8.88;1.88;;;;;;;14.17;73.40;101267.56;2092885;28;20045;-70
2022/05/10 03:41:55;;;;;;;5.63;1.52;;;;;;;14.23;73.36;101267.63;2111727;28;20039;-70
2022/05/10 03:43:17;;;;;;;6.90;1.70;;;;;;;14.25;73.42;101269.38;2106281;28;20054;-70
2022/05/10 03:44:39;;;;;;;10.27;2.25;;;;;;;14.30;73.54;101266.78;2105812;28;20579;-71
2022/05/10 03:46:06;;;;;;;7.18;1.70;;;;;;;14.39;73.66;101266.00;2108679;28;20058;-71
2022/05/10 03:47:30;;;;;;;8.27;1.60;;;;;;;14.45;73.69;101261.63;2118858;27;20426;-70
2022/05/10 03:48:57;;;;;;;8.23;2.08;;;;;;;14.53;73.62;101267.88;2106365;28;20063;-70
2022/05/10 03:50:24;;;;;;;6.95;1.92;;;;;;;14.64;73.34;101262.63;2109510;28;20057;-71
2022/05/10 03:51:46;;;;;;;3.65;1.55;;;;;;;14.71;73.30;101270.66;2112552;28;20079;-70
2022/05/10 03:53:08;;;;;;;7.53;2.15;;;;;;;14.78;72.93;101271.59;2103473;28;20044;-69
2022/05/10 03:54:30;;;;;;;9.05;1.90;;;;;;;14.85;72.82;101284.06;2095297;28;20223;-70
2022/05/10 03:55:52;;;;;;;7.03;1.60;;;;;;;14.93;72.83;101277.03;2099490;28;20497;-70
2022/05/10 03:57:14;;;;;;;9.82;1.88;;;;;;;15.04;72.79;101282.38;2102984;28;20079;-71
2022/05/10 03:58:37;;;;;;;10.40;2.25;;;;;;;15.14;72.83;101285.13;2108284;28;20437;-70
2022/05/10 03:59:59;;;;;;;4.70;1.73;;;;;;;15.24;73.05;101286.06;2103167;28;20047;-70
2022/05/10 04:01:21;;;;;;;8.75;2.00;;;;;;;15.36;73.08;101282.59;2106054;28;20051;-71
2022/05/10 04:02:44;;;;;;;4.55;1.67;;;;;;;15.44;73.21;101297.69;2110990;28;20087;-71
2022/05/10 04:04:07;;;;;;;5.97;1.73;;;;;;;15.52;73.34;101289.72;2103830;28;20592;-70
2022/05/10 04:05:31;;;;;;;9.63;1.73;;;;;;;15.63;73.43;101287.13;2100984;28;20048;-70
2022/05/10 04:06:52;;;;;;;6.90;1.63;;;;;;;15.74;73.39;101298.72;2108205;28;20043;-71
2022/05/10 04:08:15;;;;;;;10.45;2.15;;;;;;;15.86;73.39;101304.06;2110334;28;20040;-70
2022/05/10 04:09:36;;;;;;;9.13;2.05;;;;;;;15.95;73.26;101301.41;2103568;28;20040;-70
2022/05/10 04:11:03;;;;;;;5.40;1.55;;;;;;;16.07;73.23;101295.25;2111816;28;20047;-70
2022/05/10 04:12:25;;;;;;;5.63;1.67;;;;;;;16.17;72.94;101297.03;2113608;28;20035;-70
2022/05/10 04:13:46;;;;;;;4.65;1.33;;;;;;;16.28;72.79;101305.91;2111878;28;20048;-70
2022/05/10 04:15:13;;;;;;;6.05;1.45;;;;;;;16.42;72.67;101309.47;2108159;28;20045;-70
2022/05/10 04:16:34;;;;;;;5.93;1.30;;;;;;;16.53;72.42;101315.72;2100245;28;20040;-71
2022/05/10 04:17:56;;;;;;;6.20;1.55;;;;;;;16.64;72.31;101308.63;2096948;28;20040;-70
2022/05/10 04:19:18;;;;;;;6.28;1.67;;;;;;;16.79;72.05;101309.53;2100705;28;20427;-70
2022/05/10 04:20:42;;;;;;;8.25;1.88;;;;;;;16.89;71.83;101311.28;2107737;28;20134;-70
2022/05/10 04:22:05;;;;;;;4.65;1.63;;;;;;;17.02;71.49;101307.69;2112238;28;20060;-70
2022/05/10 04:23:26;;;;;;;11.07;1.95;;;;;;;17.15;70.92;101312.09;2110341;28;20114;-70
2022/05/10 04:24:49;;;;;;;8.43;2.45;;;;;;;17.28;71.04;101316.50;2110884;28;20430;-70
2022/05/10 04:26:13;;;;;;;5.55;1.35;;;;;;;17.44;70.58;101315.59;2111639;27;20061;-70
2022/05/10 04:27:36;;;;;;;6.50;1.50;;;;;;;17.57;70.09;101311.09;2110695;28;20039;-70
2022/05/10 04:28:59;;;;;;;7.13;1.55;;;;;;;17.69;69.50;101307.50;2114552;28;20042;-70
2022/05/10 04:30:23;;;;;;;6.28;1.88;;;;;;;17.81;69.22;101305.66;2102436;28;20488;-70
2022/05/10 04:31:46;;;;;;;6.45;1.50;;;;;;;17.96;68.77;101311.81;2112045;28;20051;-70
2022/05/10 04:33:09;;;;;;;5.22;1.40;;;;;;;18.08;68.45;101312.63;2111763;28;20040;-70
2022/05/10 04:34:32;;;;;;;8.00;1.48;;;;;;;18.19;68.19;101310.75;2111644;28;20039;-71
2022/05/10 04:35:56;;;;;;;4.07;1.30;;;;;;;18.32;67.58;101309.78;2109362;28;20522;-69
2022/05/10 04:37:19;;;;;;;8.20;2.35;;;;;;;18.39;67.53;101313.28;2112148;28;20047;-70
2022/05/10 04:38:40;;;;;;;10.95;1.75;;;;;;;18.53;67.60;101310.50;2097677;28;20494;-71
2022/05/10 04:41:49;;;;;;;6.40;1.60;;;;;;;18.92;67.24;101306.63;2118680;27;20529;-71
2022/05/10 04:43:10;;;;;;;7.00;1.95;;;;;;;19.09;66.82;101310.91;2108994;28;20092;-71
2022/05/10 04:44:33;;;;;;;8.45;1.60;;;;;;;19.29;66.38;101302.66;2094935;28;20066;-70
2022/05/10 04:45:56;;;;;;;8.82;1.92;;;;;;;19.49;66.21;101305.16;2103331;28;20043;-70
2022/05/10 04:47:18;;;;;;;9.57;1.67;;;;;;;19.69;65.64;101304.88;2102181;28;20060;-70
2022/05/10 04:48:41;;;;;;;4.28;0.98;;;;;;;19.89;65.36;101301.00;2107273;28;20101;-71
2022/05/10 04:50:04;;;;;;;5.70;1.60;;;;;;;20.11;64.98;101300.72;2096651;28;20096;-71
2022/05/10 04:51:28;;;;;;;5.70;2.50;;;;;;;20.29;64.49;101301.31;2102918;28;20048;-71
2022/05/10 04:52:51;;;;;;;5.13;1.80;;;;;;;20.46;64.32;101306.44;2099171;28;20048;-71
2022/05/10 04:54:14;;;;;;;4.25;1.25;;;;;;;20.68;63.99;101302.47;2100565;28;20110;-71
2022/05/10 04:55:36;;;;;;;3.63;1.50;;;;;;;20.86;63.34;101306.66;2098547;28;20048;-72
2022/05/10 04:56:59;;;;;;;5.15;1.50;;;;;;;21.06;62.70;101298.25;2109992;28;20449;-71
2022/05/10 04:58:22;;;;;;;6.43;1.38;;;;;;;21.25;62.61;101299.69;2105515;28;20063;-71
2022/05/10 04:59:44;;;;;;;7.47;1.67;;;;;;;21.48;61.79;101302.78;2111264;28;20058;-71
2022/05/10 05:01:07;;;;;;;4.68;1.45;;;;;;;21.69;60.85;101296.06;2105503;28;20048;-71
2022/05/10 05:02:30;;;;;;;5.00;1.38;;;;;;;21.92;60.67;101292.00;2108064;28;20046;-70
2022/05/10 05:03:55;;;;;;;9.88;1.58;;;;;;;22.13;60.02;101291.53;2100113;28;21839;-71
2022/05/10 05:05:18;;;;;;;3.47;1.15;;;;;;;22.34;59.16;101293.69;2107010;28;20035;-71
2022/05/10 05:06:42;;;;;;;8.48;1.55;;;;;;;22.58;58.35;101290.38;2110126;28;20087;-71
2022/05/10 05:08:05;;;;;;;8.80;1.33;;;;;;;22.80;57.69;101288.06;2110261;28;20100;-71
2022/05/10 05:09:27;;;;;;;11.50;1.38;;;;;;;23.03;56.87;101295.56;2103714;28;20044;-71
2022/05/10 05:10:49;;;;;;;8.52;1.70;;;;;;;23.25;55.94;101282.34;2108793;28;20044;-71
2022/05/10 05:12:12;;;;;;;;;;;;;;;23.42;55.29;101288.16;2097648;28;20139;-71
2022/05/10 05:13:37;;;;;;;6.15;1.70;;;;;;;23.61;54.73;101286.72;2107327;28;19955;-71
2022/05/10 05:15:00;;;;;;;8.38;2.42;;;;;;;23.75;53.83;101291.69;2107571;28;20051;-71
2022/05/10 05:16:24;;;;;;;8.80;2.00;;;;;;;23.91;53.03;101292.97;2111208;28;20078;-71
2022/05/10 05:17:47;;;;;;;8.05;1.42;;;;;;;24.08;52.41;101289.78;2105605;28;20162;-72
2022/05/10 05:19:09;;;;;;;11.45;2.20;;;;;;;24.27;52.00;101284.69;2108357;28;20047;-71
2022/05/10 05:20:32;;;;;;;8.65;1.40;;;;;;;24.47;51.51;101284.94;2102632;28;20106;-71
2022/05/10 05:21:56;;;;;;;7.68;1.40;;;;;;;24.57;50.56;101279.16;2108827;28;20109;-71
2022/05/10 05:23:21;;;;;;;8.88;1.48;;;;;;;24.69;49.94;101280.53;2102798;28;20055;-70
2022/05/10 05:24:43;;;;;;;9.25;1.75;;;;;;;24.90;49.51;101289.75;2103104;28;20047;-71
2022/05/10 05:26:06;;;;;;;11.73;1.70;;;;;;;25.13;49.12;101281.72;2103969;28;20118;-71
2022/05/10 05:27:28;;;;;;;7.72;1.52;;;;;;;25.30;48.52;101282.00;2111593;28;20031;-71
2022/05/10 05:28:50;;;;;;;6.90;1.27;;;;;;;25.40;48.55;101286.09;2110673;28;20048;-71
2022/05/10 05:30:13;;;;;;;10.10;1.58;;;;;;;25.52;48.53;101283.91;2117597;27;20047;-71
2022/05/10 05:31:36;;;;;;;12.80;2.05;;;;;;;25.68;47.94;101285.97;2104559;28;20044;-71
2022/05/10 05:32:58;;;;;;;10.93;1.30;;;;;;;25.79;47.40;101282.88;2104149;28;21857;-71
2022/05/10 05:34:21;;;;;;;8.48;1.30;;;;;;;25.91;47.28;101286.91;2111263;28;20047;-71
2022/05/10 05:35:43;;;;;;;8.80;1.42;;;;;;;26.01;46.67;101283.78;2106020;28;20039;-71
2022/05/10 05:38:46;;;;;;;8.40;1.48;;;;;;;26.25;46.07;101284.66;2112988;28;20079;-71
2022/05/10 05:40:11;;;;;;;6.65;1.27;;;;;;;26.38;44.90;101285.91;2111386;28;20047;-71
2022/05/10 05:41:33;;;;;;;14.40;1.70;;;;;;;26.36;44.98;101282.38;2111187;28;20157;-71
2022/05/10 05:42:56;;;;;;;8.30;1.52;;;;;;;26.48;45.11;101284.56;2103000;28;20081;-71
2022/05/10 05:44:19;;;;;;;8.82;1.30;;;;;;;26.61;44.50;101286.75;2100417;28;20040;-71
2022/05/10 05:45:41;;;;;;;6.68;1.42;;;;;;;26.62;43.96;101292.13;2100388;28;20060;-71
2022/05/10 05:47:07;;;;;;;11.13;1.55;;;;;;;26.76;43.50;101287.00;2104303;28;20066;-71
2022/05/10 05:48:29;;;;;;;7.43;1.52;;;;;;;26.85;43.15;101291.13;2102992;28;20450;-71
2022/05/10 05:49:51;;;;;;;16.60;1.80;;;;;;;26.90;43.01;101290.03;2104257;28;20047;-71
2022/05/10 05:51:13;;;;;;;10.80;2.15;;;;;;;26.98;42.67;101288.81;2104772;28;20048;-71
2022/05/10 05:52:37;;;;;;;10.05;1.80;;;;;;;27.12;42.30;101294.47;2097998;28;20086;-71
2022/05/10 05:53:59;;;;;;;7.80;1.20;;;;;;;27.14;42.30;101293.47;2107802;28;20143;-71
2022/05/10 05:55:22;;;;;;;9.38;1.20;;;;;;;27.20;42.41;101290.50;2102738;28;20040;-71
2022/05/10 05:56:44;;;;;;;11.48;1.27;;;;;;;27.28;42.14;101292.88;2101809;28;20067;-72
2022/05/10 05:58:07;;;;;;;9.00;1.88;;;;;;;27.38;42.21;101288.78;2108470;28;20047;-71
2022/05/10 05:59:30;;;;;;;11.85;1.17;;;;;;;27.45;41.55;101292.97;2102681;28;20529;-71
2022/05/10 06:00:52;;;;;;;6.15;1.25;;;;;;;27.44;41.28;101298.47;2108630;28;20093;-71
2022/05/10 06:02:19;;;;;;;7.97;1.30;;;;;;;27.59;40.93;101297.78;2103904;28;20156;-71
2022/05/10 06:03:43;;;;;;;8.82;1.10;;;;;;;27.61;40.45;101296.78;2103643;28;20044;-72
2022/05/10 06:05:07;;;;;;;5.57;1.15;;;;;;;27.58;40.34;101296.03;2099036;28;20060;-71
2022/05/10 06:06:29;;;;;;;8.57;1.30;;;;;;;27.57;40.07;101295.13;2107864;28;20164;-71
2022/05/10 06:07:54;;;;;;;7.45;1.30;;;;;;;27.66;39.89;101302.88;2103807;28;20496;-70
2022/05/10 06:09:19;;;;;;;12.25;1.80;;;;;;;27.88;39.68;101293.72;2110819;28;20044;-71
2022/05/10 06:10:42;;;;;;;6.75;0.88;;;;;;;28.10;39.53;101297.13;2113191;28;20191;-71
2022/05/10 06:12:05;;;;;;;5.65;1.33;;;;;;;28.22;38.72;101299.31;2104512;28;20079;-71
2022/05/10 06:13:28;;;;;;;4.72;1.20;;;;;;;28.15;38.69;101292.44;2110717;28;20047;-71
2022/05/10 06:14:49;;;;;;;6.68;1.20;;;;;;;28.05;38.39;101296.50;2103713;28;20052;-71
2022/05/10 06:16:12;;;;;;;5.97;1.42;;;;;;;27.94;38.74;101298.84;2109923;28;20557;-72
2022/05/10 06:17:34;;;;;;;6.82;1.20;;;;;;;27.95;38.77;101293.34;2103237;28;20048;-71
2022/05/10 06:18:57;;;;;;;8.85;1.40;;;;;;;27.89;38.37;101298.19;2106885;28;20047;-71
2022/05/10 06:20:22;;;;;;;7.72;1.00;;;;;;;27.69;38.41;101294.59;2111375;28;20040;-71
2022/05/10 06:21:44;;;;;;;8.15;1.30;;;;;;;27.69;38.77;101299.13;2111744;28;20079;-71
2022/05/10 06:23:09;;;;;;;5.97;1.08;;;;;;;27.74;38.84;101294.38;2103174;28;20044;-71
2022/05/10 06:24:31;;;;;;;7.25;1.00;;;;;;;27.76;38.93;101295.19;2111911;28;20055;-71
2022/05/10 06:25:54;;;;;;;5.53;1.02;;;;;;;27.89;39.04;101290.94;2105139;28;20040;-71
2022/05/10 06:27:16;;;;;;;11.80;1.40;;;;;;;28.02;38.79;101291.22;2095707;28;20048;-71
2022/05/10 06:28:39;;;;;;;7.72;1.27;;;;;;;28.01;39.02;101292.19;2114181;27;20403;-71
2022/05/10 06:30:01;;;;;;;8.68;1.42;;;;;;;28.13;38.86;101299.72;2107508;28;20478;-71
2022/05/10 06:31:24;;;;;;;7.03;1.33;;;;;;;28.17;38.50;101295.03;2110254;27;21529;-71
2022/05/10 06:32:49;;;;;;;6.63;2.33;;;;;;;28.19;38.44;101304.00;2112891;28;20055;-71
2022/05/10 06:34:12;;;;;;;7.85;1.30;;;;;;;28.21;38.43;101302.09;2097828;28;20101;-72
2022/05/10 06:35:34;;;;;;;8.65;1.30;;;;;;;28.26;38.26;101300.91;2095187;28;20625;-72
2022/05/10 06:36:55;;;;;;;4.10;1.08;;;;;;;28.24;37.96;101293.78;2111230;28;20103;-72
2022/05/10 06:38:26;;;;;;;8.93;1.35;;;;;;;28.05;38.05;101301.91;2112813;28;20061;-72
2022/05/10 06:39:48;;;;;;;9.98;1.17;;;;;;;27.96;38.42;101307.81;2104829;28;20043;-72
2022/05/10 06:41:10;;;;;;;6.15;1.30;;;;;;;27.95;38.75;101311.47;2104256;28;20164;-72